Time;durP1;ratioP1;P1;durP2;ratioP2;P2;SDS_P1;SDS_P2;PMS_P1;PMS_P2;Temp;Humidity;BMP_temperature;BMP_pressure;BME280_temperature;BME280_humidity;BME280_pressure;Samples;Min_cycle;Max_cycle;Signal;HPM_P1;HPM_P2
2022/04/04 00:01:00;;;;;;;6.90;5.65;;;;;;;-7.20;100.00;93215.66;2094274;28;20431;-82
2022/04/04 00:02:03;;;;;;;5.93;4.95;;;;;;;-7.24;100.00;93215.53;2094990;28;20027;-82
2022/04/04 00:03:04;;;;;;;5.68;4.90;;;;;;;-6.94;100.00;93215.72;2105610;28;20457;-82
2022/04/04 00:04:08;;;;;;;6.53;5.65;;;;;;;-6.94;100.00;93213.88;2103124;28;20031;-83
2022/04/04 00:05:11;;;;;;;6.32;5.32;;;;;;;-6.95;100.00;93216.78;2096819;28;20455;-84
2022/04/04 00:06:12;;;;;;;6.15;4.95;;;;;;;-6.93;100.00;93212.06;2098485;28;20025;-82
2022/04/04 00:07:13;;;;;;;5.63;5.10;;;;;;;-7.00;100.00;93203.94;2104620;28;20974;-83
2022/04/04 00:08:14;;;;;;;6.75;5.57;;;;;;;-7.00;100.00;93209.91;2112601;28;20038;-83
2022/04/04 00:09:15;;;;;;;5.75;5.20;;;;;;;-7.06;100.00;93213.72;2111106;28;20026;-83
2022/04/04 00:10:16;;;;;;;6.85;5.20;;;;;;;-6.87;100.00;93213.44;2102287;28;20591;-82
2022/04/04 00:11:17;;;;;;;6.30;4.70;;;;;;;-7.13;100.00;93214.16;2097873;28;20024;-82
2022/04/04 00:12:20;;;;;;;6.05;5.13;;;;;;;-6.95;100.00;93207.16;2090417;28;20048;-81
2022/04/04 00:13:21;;;;;;;5.30;4.70;;;;;;;-7.28;100.00;93206.81;2091023;28;20468;-81
2022/04/04 00:14:23;;;;;;;6.15;5.15;;;;;;;-7.23;100.00;93203.31;2097553;28;20026;-81
2022/04/04 00:15:24;;;;;;;6.05;5.10;;;;;;;-7.11;100.00;93203.47;2093253;28;20545;-83
2022/04/04 00:16:28;;;;;;;6.30;5.15;;;;;;;-7.07;100.00;93208.81;2090832;28;20028;-81
2022/04/04 00:17:29;;;;;;;7.70;5.63;;;;;;;-6.97;100.00;93211.91;2095843;28;20510;-82
2022/04/04 00:18:31;;;;;;;5.70;5.10;;;;;;;-6.92;100.00;93211.75;2096910;28;20458;-82
2022/04/04 00:19:32;;;;;;;8.30;4.82;;;;;;;-6.89;100.00;93211.16;2088477;28;20032;-83
2022/04/04 00:20:34;;;;;;;6.97;4.57;;;;;;;-6.98;100.00;93212.19;2088783;28;20459;-82
2022/04/04 00:21:36;;;;;;;6.93;4.53;;;;;;;-7.20;100.00;93219.03;2094298;28;20020;-82
2022/04/04 00:22:37;;;;;;;6.20;5.28;;;;;;;-7.43;100.00;93215.75;2094103;28;20590;-83
2022/04/04 00:23:38;;;;;;;6.53;5.10;;;;;;;-7.61;100.00;93209.75;2096027;28;20446;-82
2022/04/04 00:24:40;;;;;;;6.90;4.82;;;;;;;-7.71;100.00;93209.25;2089537;28;20028;-82
2022/04/04 00:25:43;;;;;;;7.18;4.97;;;;;;;-7.73;100.00;93213.97;2090064;28;20435;-81
2022/04/04 00:26:44;;;;;;;5.88;4.97;;;;;;;-7.71;100.00;93204.81;2087569;28;20466;-83
2022/04/04 00:27:45;;;;;;;7.45;5.28;;;;;;;-7.50;100.00;93204.31;2088827;28;20467;-83
2022/04/04 00:28:47;;;;;;;5.35;4.85;;;;;;;-7.47;100.00;93208.88;2096217;28;20451;-84
2022/04/04 00:29:48;;;;;;;7.28;4.68;;;;;;;-7.60;100.00;93205.31;2094069;28;20095;-81
2022/04/04 00:30:49;;;;;;;7.10;5.22;;;;;;;-7.60;100.00;93206.06;2098101;28;20451;-83
2022/04/04 00:31:52;;;;;;;6.55;5.28;;;;;;;-7.68;100.00;93204.22;2089752;28;20490;-83
2022/04/04 00:32:54;;;;;;;6.10;4.88;;;;;;;-7.52;100.00;93201.97;2098430;28;20020;-83
2022/04/04 00:33:55;;;;;;;5.88;4.80;;;;;;;-7.38;100.00;93199.28;2089108;28;20444;-83
2022/04/04 00:34:55;;;;;;;11.25;5.25;;;;;;;-7.30;100.00;93201.13;2089625;28;20439;-83
2022/04/04 00:35:56;;;;;;;7.57;5.10;;;;;;;-7.36;100.00;93204.94;2089334;28;20032;-82
2022/04/04 00:36:57;;;;;;;7.07;4.80;;;;;;;-7.24;100.00;93199.94;2094489;28;20024;-82
2022/04/04 00:37:59;;;;;;;5.63;4.95;;;;;;;-7.14;100.00;93198.88;2089799;28;20944;-81
2022/04/04 00:39:00;;;;;;;6.18;4.93;;;;;;;-7.41;100.00;93200.66;2089762;28;20115;-84
2022/04/04 00:40:01;;;;;;;7.70;4.90;;;;;;;-7.33;100.00;93193.19;2089661;28;20520;-83
2022/04/04 00:41:11;;;;;;;7.63;4.80;;;;;;;-7.13;100.00;93192.63;2089867;28;20052;-82
2022/04/04 00:42:16;;;;;;;6.60;5.18;;;;;;;-7.27;100.00;93197.19;2090584;28;20509;-83
2022/04/04 00:43:16;;;;;;;5.80;4.88;;;;;;;-7.29;100.00;93191.50;2090845;28;20792;-82
2022/04/04 00:44:17;;;;;;;5.93;4.57;;;;;;;-7.58;100.00;93200.59;2103872;28;20462;-81
2022/04/04 00:45:24;;;;;;;7.60;5.38;;;;;;;-7.70;100.00;93192.59;2098090;28;20083;-84
2022/04/04 00:46:25;;;;;;;5.03;4.32;;;;;;;-7.73;100.00;93199.16;2099651;28;20363;-83
2022/04/04 00:47:27;;;;;;;5.25;4.75;;;;;;;-7.73;100.00;93193.19;2097743;28;20500;-83
2022/04/04 00:48:28;;;;;;;5.40;4.80;;;;;;;-7.83;100.00;93190.88;2105124;28;20027;-82
2022/04/04 00:49:29;;;;;;;5.00;4.50;;;;;;;-7.81;100.00;93199.91;2106284;28;20449;-82
2022/04/04 00:50:30;;;;;;;6.45;4.43;;;;;;;-7.62;100.00;93197.06;2097759;28;21450;-83
2022/04/04 00:51:31;;;;;;;5.82;4.68;;;;;;;-7.59;100.00;93199.06;2093675;28;20385;-81
2022/04/04 00:52:31;;;;;;;6.88;4.65;;;;;;;-7.57;100.00;93203.97;2094594;28;20024;-82
2022/04/04 00:53:33;;;;;;;7.53;4.75;;;;;;;-7.48;100.00;93204.75;2090662;28;20036;-83
2022/04/04 00:54:34;;;;;;;8.82;5.20;;;;;;;-7.52;100.00;93201.22;2089993;28;20087;-83
2022/04/04 00:55:35;;;;;;;5.15;4.68;;;;;;;-7.83;100.00;93194.22;2099587;28;20862;-82
2022/04/04 00:56:39;;;;;;;5.43;4.93;;;;;;;-7.93;100.00;93195.25;2106268;28;20446;-81
2022/04/04 00:57:40;;;;;;;5.90;4.55;;;;;;;-7.98;100.00;93194.63;2114785;28;20548;-82
2022/04/04 00:58:42;;;;;;;7.05;4.90;;;;;;;-7.85;100.00;93196.38;2097910;28;20446;-81
2022/04/04 00:59:45;;;;;;;6.78;4.75;;;;;;;-8.00;100.00;93194.16;2096948;28;20970;-83
2022/04/04 01:00:48;;;;;;;5.65;4.63;;;;;;;-8.01;100.00;93195.97;2094156;28;20546;-82
2022/04/04 01:01:49;;;;;;;4.68;4.20;;;;;;;-7.96;100.00;93188.06;2098491;28;20442;-83
2022/04/04 01:02:50;;;;;;;6.22;4.82;;;;;;;-8.01;100.00;93187.44;2097987;28;20471;-82
2022/04/04 01:03:51;;;;;;;5.88;5.28;;;;;;;-8.03;100.00;93182.56;2089733;28;20972;-83
2022/04/04 01:04:52;;;;;;;4.78;4.13;;;;;;;-8.06;100.00;93188.34;2089089;28;20463;-82
2022/04/04 01:05:57;;;;;;;6.07;4.72;;;;;;;-8.09;100.00;93186.31;2098074;28;20535;-81
2022/04/04 01:06:59;;;;;;;4.82;4.30;;;;;;;-8.20;100.00;93198.03;2098373;28;20035;-82
2022/04/04 01:08:00;;;;;;;5.22;4.50;;;;;;;-8.10;100.00;93184.81;2097967;28;20454;-81
2022/04/04 01:09:02;;;;;;;5.38;4.88;;;;;;;-8.11;100.00;93186.63;2106065;28;20449;-83
2022/04/04 01:10:06;;;;;;;8.02;4.80;;;;;;;-8.17;100.00;93184.44;2114495;28;20019;-82
2022/04/04 01:11:07;;;;;;;6.03;4.60;;;;;;;-8.16;100.00;93181.59;2098079;28;20477;-80
2022/04/04 01:12:10;;;;;;;8.10;4.40;;;;;;;-8.10;100.00;93182.22;2094515;28;20478;-82
2022/04/04 01:13:13;;;;;;;7.82;4.88;;;;;;;-8.07;100.00;93176.44;2093360;28;20070;-83
2022/04/04 01:14:14;;;;;;;5.18;4.13;;;;;;;-8.01;100.00;93179.66;2090010;28;20852;-83
2022/04/04 01:15:15;;;;;;;5.53;4.68;;;;;;;-7.99;100.00;93178.31;2091042;28;20451;-83
2022/04/04 01:16:17;;;;;;;5.85;4.75;;;;;;;-7.94;100.00;93178.19;2085749;28;20098;-80
2022/04/04 01:17:21;;;;;;;5.80;4.78;;;;;;;-8.02;100.00;93181.50;2095940;28;20029;-82
2022/04/04 01:18:22;;;;;;;5.32;4.82;;;;;;;-8.05;100.00;93176.13;2097717;28;21122;-83
2022/04/04 01:19:23;;;;;;;5.47;4.72;;;;;;;-8.12;100.00;93177.34;2095960;28;20447;-85
2022/04/04 01:20:24;;;;;;;5.35;4.50;;;;;;;-8.12;100.00;93181.72;2088670;28;20532;-84
2022/04/04 01:21:25;;;;;;;6.97;4.78;;;;;;;-8.03;100.00;93181.78;2088703;28;20393;-83
2022/04/04 01:22:29;;;;;;;4.50;4.10;;;;;;;-8.12;100.00;93176.53;2097045;28;20489;-82
2022/04/04 01:23:40;;;;;;;5.15;4.60;;;;;;;-8.04;100.00;93185.44;2097488;28;20020;-83
2022/04/04 01:24:41;;;;;;;5.20;4.70;;;;;;;-7.99;100.00;93182.72;2095755;28;20454;-83
2022/04/04 01:25:42;;;;;;;5.38;4.30;;;;;;;-8.02;100.00;93181.50;2089435;28;20451;-82
2022/04/04 01:26:47;;;;;;;9.82;4.60;;;;;;;-7.99;100.00;93170.53;2100973;28;20496;-83
2022/04/04 01:27:48;;;;;;;5.32;4.40;;;;;;;-7.99;100.00;93182.72;2105734;28;20454;-81
2022/04/04 01:28:49;;;;;;;5.22;4.72;;;;;;;-7.93;100.00;93176.34;2105842;28;20442;-83
2022/04/04 01:29:50;;;;;;;7.18;4.70;;;;;;;-8.01;100.00;93177.84;2111441;28;20809;-82
2022/04/04 01:30:52;;;;;;;6.57;4.70;;;;;;;-8.14;100.00;93182.03;2097631;28;20489;-82
2022/04/04 01:31:54;;;;;;;6.95;4.60;;;;;;;-7.95;100.00;93179.22;2089471;28;20448;-82
2022/04/04 01:32:55;;;;;;;6.20;4.22;;;;;;;-8.04;100.00;93175.06;2092062;28;20470;-83
2022/04/04 01:33:56;;;;;;;5.70;5.03;;;;;;;-8.01;100.00;93171.88;2093097;28;20474;-83
2022/04/04 01:34:58;;;;;;;5.18;4.65;;;;;;;-8.03;100.00;93168.81;2096561;28;20453;-83
2022/04/04 01:35:59;;;;;;;6.13;4.75;;;;;;;-7.86;100.00;93161.09;2088768;28;20439;-82
2022/04/04 01:37:07;;;;;;;7.25;4.82;;;;;;;-7.91;100.00;93167.19;2096230;28;20450;-80
2022/04/04 01:38:08;;;;;;;6.18;4.55;;;;;;;-8.02;100.00;93163.34;2106565;28;20446;-83
2022/04/04 01:39:09;;;;;;;9.02;4.75;;;;;;;-7.89;100.00;93164.31;2103167;28;20961;-82
2022/04/04 01:40:11;;;;;;;4.75;4.13;;;;;;;-8.06;100.00;93167.59;2097333;28;20446;-81
2022/04/04 01:41:13;;;;;;;5.97;4.60;;;;;;;-8.08;100.00;93176.72;2088923;28;20079;-82
2022/04/04 01:42:14;;;;;;;6.70;4.47;;;;;;;-8.34;100.00;93168.81;2090524;28;21128;-84
2022/04/04 01:43:15;;;;;;;4.75;4.07;;;;;;;-8.27;100.00;93162.16;2094637;28;20458;-82
2022/04/04 01:44:17;;;;;;;6.50;4.80;;;;;;;-8.34;100.00;93173.97;2097198;28;20028;-83
2022/04/04 01:46:23;;;;;;;5.40;4.28;;;;;;;-8.28;100.00;93175.41;2089195;28;20995;-82
2022/04/04 01:46:40;;;;;;;4.07;3.67;;;;;;;-8.22;100.00;93167.19;2097716;28;20457;-82
2022/04/04 01:47:41;;;;;;;4.65;4.05;;;;;;;-8.16;100.00;93179.00;2095991;28;21073;-81
2022/04/04 01:48:43;;;;;;;6.13;4.32;;;;;;;-8.35;100.00;93170.63;2096222;28;20455;-82
2022/04/04 01:49:44;;;;;;;5.65;4.45;;;;;;;-8.20;100.00;93175.47;2105025;28;20454;-82
2022/04/04 01:50:45;;;;;;;5.53;4.57;;;;;;;-8.25;100.00;93177.38;2097365;28;20631;-82
2022/04/04 01:51:46;;;;;;;7.13;4.72;;;;;;;-8.33;100.00;93173.72;2088910;28;20535;-83
2022/04/04 01:53:25;;;;;;;5.38;4.57;;;;;;;-8.46;100.00;93174.56;2097137;28;20474;-84
2022/04/04 01:54:09;;;;;;;5.97;4.50;;;;;;;-8.20;100.00;93172.88;2103425;28;21175;-82
2022/04/04 01:55:10;;;;;;;7.60;4.50;;;;;;;-8.37;100.00;93175.38;2097128;28;20518;-81
2022/04/04 01:56:12;;;;;;;5.35;4.78;;;;;;;-8.44;100.00;93175.03;2104775;28;20442;-82
2022/04/04 01:57:14;;;;;;;5.47;4.47;;;;;;;-8.50;100.00;93178.81;2096850;28;20986;-83
2022/04/04 01:58:16;;;;;;;5.28;4.40;;;;;;;-8.58;100.00;93182.09;2097472;28;20862;-81
2022/04/04 01:59:18;;;;;;;6.28;4.82;;;;;;;-8.58;100.00;93176.91;2093542;28;20439;-82
2022/04/04 02:00:20;;;;;;;7.72;4.50;;;;;;;-8.37;100.00;93180.56;2091420;28;20505;-82
2022/04/04 02:01:22;;;;;;;5.57;4.53;;;;;;;-8.38;100.00;93173.88;2087399;28;20438;-81
2022/04/04 02:02:24;;;;;;;7.13;4.53;;;;;;;-8.38;100.00;93171.28;2088733;28;20894;-84
2022/04/04 02:03:25;;;;;;;5.93;4.38;;;;;;;-8.42;100.00;93178.09;2088321;28;20468;-84
2022/04/04 02:04:26;;;;;;;4.82;4.32;;;;;;;-8.53;100.00;93171.63;2096792;28;20435;-82
2022/04/04 02:05:27;;;;;;;6.43;4.35;;;;;;;-8.64;100.00;93182.22;2102036;28;20027;-81
2022/04/04 02:06:29;;;;;;;6.45;4.20;;;;;;;-8.73;100.00;93176.22;2113242;28;20499;-81
2022/04/04 02:07:31;;;;;;;5.82;4.78;;;;;;;-8.66;100.00;93163.59;2096583;28;20875;-82
2022/04/04 02:08:33;;;;;;;6.13;5.30;;;;;;;-8.48;100.00;93164.47;2086617;28;20843;-82
2022/04/04 02:09:35;;;;;;;7.15;4.70;;;;;;;-8.52;100.00;93165.38;2097058;28;20477;-81
2022/04/04 02:12:26;;;;;;;4.80;4.25;;;;;;;-8.59;100.00;93158.03;2131164;27;20652;-83
2022/04/04 02:13:28;;;;;;;6.55;4.30;;;;;;;-8.50;100.00;93158.09;2128000;27;20083;-83
2022/04/04 02:14:30;;;;;;;6.18;4.70;;;;;;;-8.63;100.00;93160.44;2105845;28;20016;-81
2022/04/04 02:15:30;;;;;;;6.88;4.68;;;;;;;-8.65;100.00;93162.56;2105795;28;20532;-82
2022/04/04 02:16:32;;;;;;;7.75;4.95;;;;;;;-8.66;100.00;93158.44;2115848;28;20444;-81
2022/04/04 02:17:34;;;;;;;7.60;5.03;;;;;;;-8.64;100.00;93150.38;2096920;28;20047;-82
2022/04/04 02:18:35;;;;;;;5.32;4.82;;;;;;;-8.69;100.00;93150.47;2101504;28;20454;-84
2022/04/04 02:19:36;;;;;;;5.38;4.88;;;;;;;-8.45;100.00;93152.78;2115451;28;20433;-83
2022/04/04 02:20:37;;;;;;;5.35;4.75;;;;;;;-8.46;100.00;93143.47;2107480;28;20450;-84
2022/04/04 02:21:38;;;;;;;5.22;4.72;;;;;;;-8.67;100.00;93154.31;2104964;28;20467;-84
2022/04/04 02:22:39;;;;;;;5.47;4.93;;;;;;;-8.74;100.00;93150.59;2110929;28;20492;-82
2022/04/04 02:23:40;;;;;;;5.90;5.00;;;;;;;-8.71;100.00;93155.19;2107746;28;20454;-81
2022/04/04 02:24:41;;;;;;;6.10;4.63;;;;;;;-8.65;100.00;93154.78;2112268;28;20016;-82
2022/04/04 02:25:42;;;;;;;5.78;4.85;;;;;;;-8.75;100.00;93155.00;2108800;28;20462;-82
2022/04/04 02:26:43;;;;;;;6.10;5.35;;;;;;;-8.78;100.00;93152.25;2106393;28;20428;-83
2022/04/04 02:27:44;;;;;;;6.43;4.40;;;;;;;-8.75;100.00;93156.84;2107269;27;20257;-83
2022/04/04 02:28:45;;;;;;;6.20;4.85;;;;;;;-8.49;100.00;93144.81;2108108;28;20081;-82
2022/04/04 02:29:46;;;;;;;5.63;4.88;;;;;;;-8.56;100.00;93146.28;2099140;28;20923;-84
2022/04/04 02:30:49;;;;;;;7.78;4.80;;;;;;;-8.67;100.00;93143.94;2104899;28;20025;-81
2022/04/04 02:31:50;;;;;;;9.15;5.18;;;;;;;-8.70;100.00;93146.34;2097392;28;20472;-83
2022/04/04 02:32:51;;;;;;;6.45;5.10;;;;;;;-8.76;100.00;93150.91;2103761;28;21080;-83
2022/04/04 02:33:52;;;;;;;6.45;4.60;;;;;;;-8.49;100.00;93141.47;2097351;28;20024;-83
2022/04/04 02:34:53;;;;;;;6.50;4.70;;;;;;;-8.62;100.00;93141.22;2112357;28;20469;-82
2022/04/04 02:35:54;;;;;;;5.57;4.60;;;;;;;-8.85;100.00;93137.13;2096240;28;20504;-82
2022/04/04 02:36:55;;;;;;;5.05;4.55;;;;;;;-8.88;100.00;93141.06;2099486;28;20450;-82
2022/04/04 02:37:57;;;;;;;8.68;5.10;;;;;;;-8.90;100.00;93134.66;2101465;28;20442;-83
2022/04/04 02:38:58;;;;;;;6.68;4.53;;;;;;;-8.85;100.00;93126.00;2109420;28;20025;-80
2022/04/04 02:40:00;;;;;;;6.22;4.97;;;;;;;-8.74;100.00;93135.06;2106416;28;20474;-82
2022/04/04 02:41:00;;;;;;;7.53;4.80;;;;;;;-8.82;100.00;93121.00;2094831;28;20447;-82
2022/04/04 02:42:02;;;;;;;7.47;4.97;;;;;;;-8.83;100.00;93129.81;2120656;28;20791;-82
2022/04/04 02:43:04;;;;;;;7.00;5.40;;;;;;;-8.81;100.00;93121.78;2119113;28;20417;-82
2022/04/04 02:44:05;;;;;;;5.65;4.45;;;;;;;-8.84;100.00;93125.69;2100459;28;21006;-81
2022/04/04 02:45:07;;;;;;;5.82;4.53;;;;;;;-8.79;100.00;93125.56;2096404;28;20447;-81
2022/04/04 02:46:11;;;;;;;6.80;5.32;;;;;;;-8.77;100.00;93133.06;2106346;28;20480;-81
2022/04/04 02:47:12;;;;;;;5.78;4.53;;;;;;;-8.81;100.00;93132.88;2110396;28;20431;-83
2022/04/04 02:48:15;;;;;;;6.72;4.78;;;;;;;-8.77;100.00;93131.25;2109530;28;20998;-82
2022/04/04 02:49:16;;;;;;;6.65;4.32;;;;;;;-8.75;100.00;93139.47;2096611;28;20060;-83
2022/04/04 02:50:17;;;;;;;5.43;4.75;;;;;;;-8.89;100.00;93133.59;2097991;28;20525;-83
2022/04/04 02:51:18;;;;;;;7.95;4.90;;;;;;;-8.88;100.00;93130.69;2100684;28;20020;-81
2022/04/04 02:52:19;;;;;;;9.50;4.88;;;;;;;-8.84;100.00;93124.94;2100102;28;20481;-82
2022/04/04 02:53:20;;;;;;;6.43;4.70;;;;;;;-8.72;100.00;93130.34;2110098;27;20540;-80
2022/04/04 02:54:23;;;;;;;6.05;4.55;;;;;;;-8.92;100.00;93134.16;2105017;28;20521;-82
2022/04/04 02:56:43;;;;;;;5.32;4.38;;;;;;;-8.77;100.00;93135.66;2117107;27;20442;-81
2022/04/04 02:57:44;;;;;;;4.97;4.47;;;;;;;-8.84;100.00;93132.72;2104710;28;20131;-81
2022/04/04 02:58:46;;;;;;;5.28;4.20;;;;;;;-8.94;100.00;93137.06;2109071;28;20028;-81
2022/04/04 02:59:47;;;;;;;5.95;4.53;;;;;;;-8.82;100.00;93131.38;2095909;28;20116;-82
2022/04/04 03:00:48;;;;;;;5.68;4.50;;;;;;;-8.82;100.00;93131.38;2106313;27;20967;-83
2022/04/04 03:01:49;;;;;;;5.72;4.90;;;;;;;-8.74;100.00;93130.63;2121135;27;20528;-83
2022/04/04 03:02:52;;;;;;;6.32;4.70;;;;;;;-8.77;100.00;93128.66;2117168;27;20421;-84
2022/04/04 03:03:53;;;;;;;6.18;4.45;;;;;;;-8.85;100.00;93126.75;2106598;27;20032;-81
2022/04/04 03:04:54;;;;;;;5.15;4.47;;;;;;;-9.03;100.00;93130.28;2105603;28;20894;-81
2022/04/04 03:05:55;;;;;;;4.78;4.15;;;;;;;-8.78;100.00;93127.13;2094749;28;20048;-84
2022/04/04 03:06:56;;;;;;;7.57;4.93;;;;;;;-8.81;100.00;93127.72;2099502;28;20020;-82
2022/04/04 03:07:57;;;;;;;5.75;4.75;;;;;;;-8.90;100.00;93127.66;2101932;28;20410;-82
2022/04/04 03:08:58;;;;;;;5.22;3.92;;;;;;;-8.95;100.00;93121.81;2094128;28;20465;-83
2022/04/04 03:09:59;;;;;;;5.85;4.60;;;;;;;-9.00;100.00;93125.31;2091244;28;20447;-82
2022/04/04 03:11:00;;;;;;;4.97;4.45;;;;;;;-8.93;100.00;93127.47;2106278;28;20031;-83
2022/04/04 03:12:01;;;;;;;4.85;4.35;;;;;;;-8.95;100.00;93121.81;2104693;28;20130;-82
2022/04/04 03:13:05;;;;;;;6.13;4.60;;;;;;;-9.11;100.00;93123.97;2113641;28;20114;-82
2022/04/04 03:14:06;;;;;;;6.32;4.60;;;;;;;-9.02;100.00;93117.03;2103087;28;21448;-81
2022/04/04 03:15:08;;;;;;;4.78;4.28;;;;;;;-9.06;100.00;93118.69;2098249;28;20442;-81
2022/04/04 03:16:10;;;;;;;5.25;4.75;;;;;;;-8.92;100.00;93116.03;2097147;28;20863;-82
2022/04/04 03:17:11;;;;;;;5.22;4.55;;;;;;;-8.85;100.00;93131.19;2104125;28;20474;-81
2022/04/04 03:18:12;;;;;;;7.47;4.72;;;;;;;-9.00;100.00;93119.31;2096111;28;20465;-82
2022/04/04 03:19:16;;;;;;;7.70;4.28;;;;;;;-8.99;100.00;93126.06;2096259;28;20439;-83
2022/04/04 03:20:19;;;;;;;7.03;4.38;;;;;;;-9.00;100.00;93124.50;2091002;28;20021;-83
2022/04/04 03:21:22;;;;;;;6.15;4.13;;;;;;;-8.91;100.00;93118.34;2099149;28;20493;-82
2022/04/04 03:22:23;;;;;;;6.55;4.30;;;;;;;-9.17;100.00;93125.94;2095930;28;20439;-82
2022/04/04 03:23:26;;;;;;;6.90;4.55;;;;;;;-9.07;100.00;93129.34;2096657;28;20466;-81
2022/04/04 03:24:27;;;;;;;4.65;4.20;;;;;;;-9.15;100.00;93133.38;2088103;28;20605;-81
2022/04/04 03:25:28;;;;;;;6.45;4.70;;;;;;;-8.87;100.00;93121.09;2096471;28;20593;-82
2022/04/04 03:26:31;;;;;;;5.80;4.20;;;;;;;-9.10;100.00;93122.16;2084226;28;20121;-80
2022/04/04 03:27:32;;;;;;;9.27;4.55;;;;;;;-9.21;100.00;93124.22;2095031;28;20433;-81
2022/04/04 03:28:33;;;;;;;6.78;4.50;;;;;;;-9.22;100.00;93122.66;2102152;28;20947;-83
2022/04/04 03:29:34;;;;;;;5.95;4.68;;;;;;;-9.27;100.00;93130.53;2094208;28;20032;-81
2022/04/04 03:30:35;;;;;;;5.47;4.32;;;;;;;-9.30;100.00;93131.91;2094366;28;20028;-82
2022/04/04 03:31:36;;;;;;;5.90;4.70;;;;;;;-9.26;100.00;93130.28;2089873;28;20021;-83
2022/04/04 03:32:37;;;;;;;5.18;4.30;;;;;;;-9.18;100.00;93137.31;2093958;28;20438;-83
2022/04/04 03:33:40;;;;;;;5.75;4.43;;;;;;;-9.07;100.00;93132.69;2094905;28;20492;-81
2022/04/04 03:34:41;;;;;;;6.10;4.65;;;;;;;-9.14;100.00;93127.91;2087796;28;20595;-80
2022/04/04 03:35:42;;;;;;;5.53;4.18;;;;;;;-9.21;100.00;93130.16;2082520;28;20475;-81
2022/04/04 03:36:43;;;;;;;8.10;4.72;;;;;;;-9.23;100.00;93129.66;2093937;28;20498;-81
2022/04/04 03:37:47;;;;;;;5.40;4.40;;;;;;;-9.19;100.00;93137.63;2090845;28;20422;-82
2022/04/04 03:38:47;;;;;;;5.72;4.50;;;;;;;-9.15;100.00;93123.78;2094437;28;20031;-81
2022/04/04 03:39:48;;;;;;;7.25;4.75;;;;;;;-9.07;100.00;93129.34;2098201;28;20469;-80
2022/04/04 03:40:49;;;;;;;6.07;4.82;;;;;;;-9.05;100.00;93122.81;2101005;28;20035;-81
2022/04/04 03:41:53;;;;;;;6.57;4.07;;;;;;;-9.11;100.00;93128.41;2100778;28;20025;-81
2022/04/04 03:42:56;;;;;;;5.35;4.10;;;;;;;-9.06;100.00;93123.88;2091273;28;20021;-82
2022/04/04 03:43:57;;;;;;;8.32;4.95;;;;;;;-9.16;100.00;93127.44;2096405;28;20447;-81
2022/04/04 03:44:58;;;;;;;5.65;4.32;;;;;;;-9.22;100.00;93123.44;2091998;28;20455;-82
2022/04/04 03:45:59;;;;;;;6.45;4.43;;;;;;;-9.18;100.00;93129.56;2112343;28;20481;-81
2022/04/04 03:47:00;;;;;;;6.00;4.43;;;;;;;-9.10;100.00;93124.75;2103104;28;20029;-80
2022/04/04 03:48:01;;;;;;;6.60;5.18;;;;;;;-9.18;100.00;93124.38;2094436;28;20032;-80
2022/04/04 03:49:02;;;;;;;5.57;4.72;;;;;;;-9.11;100.00;93138.75;2096450;28;20027;-83
2022/04/04 03:50:05;;;;;;;4.88;4.32;;;;;;;-9.04;100.00;93131.31;2094717;28;20473;-82
2022/04/04 03:51:06;;;;;;;5.45;4.65;;;;;;;-9.40;100.00;93126.94;2098341;28;20029;-82
2022/04/04 03:52:08;;;;;;;5.72;4.68;;;;;;;-9.20;100.00;93126.50;2090037;28;20472;-83
2022/04/04 03:53:09;;;;;;;5.60;4.65;;;;;;;-9.28;100.00;93122.00;2095408;28;20450;-82
2022/04/04 03:54:10;;;;;;;7.45;4.45;;;;;;;-9.37;100.00;93123.75;2097133;28;20493;-83
2022/04/04 03:55:12;;;;;;;5.20;4.05;;;;;;;-9.15;100.00;93121.22;2095087;28;20036;-81
2022/04/04 03:56:14;;;;;;;5.38;4.68;;;;;;;-9.29;100.00;93122.31;2093774;28;20906;-81
2022/04/04 03:57:15;;;;;;;6.03;4.75;;;;;;;-9.26;100.00;93122.50;2086716;28;21014;-82
2022/04/04 03:58:16;;;;;;;5.20;4.70;;;;;;;-9.13;100.00;93120.91;2082636;28;20467;-83
2022/04/04 03:59:18;;;;;;;5.95;4.18;;;;;;;-9.17;100.00;93114.81;2085084;28;20464;-83
2022/04/04 04:00:21;;;;;;;6.18;4.57;;;;;;;-9.24;100.00;93115.19;2094490;28;20074;-82
2022/04/04 04:01:24;;;;;;;5.88;4.15;;;;;;;-9.27;100.00;93108.00;2099851;28;20526;-82
2022/04/04 04:02:26;;;;;;;5.75;4.03;;;;;;;-9.36;100.00;93114.94;2093507;28;20812;-84
2022/04/04 04:03:27;;;;;;;5.88;4.40;;;;;;;-9.19;100.00;93112.50;2094434;28;20493;-84
2022/04/04 04:04:28;;;;;;;5.82;5.03;;;;;;;-9.36;100.00;93120.13;2101941;28;20563;-83
2022/04/04 04:05:30;;;;;;;6.45;4.75;;;;;;;-9.35;100.00;93113.13;2094022;28;20458;-83
2022/04/04 04:06:33;;;;;;;5.88;4.57;;;;;;;-9.32;100.00;93115.88;2091395;28;20439;-83
2022/04/04 04:07:34;;;;;;;5.45;4.95;;;;;;;-9.25;100.00;93105.16;2092005;28;20498;-84
2022/04/04 04:08:35;;;;;;;7.05;4.43;;;;;;;-9.18;100.00;93110.66;2104445;28;21069;-84
2022/04/04 04:09:37;;;;;;;10.80;4.97;;;;;;;-9.25;100.00;93111.09;2099776;28;20535;-83
2022/04/04 04:10:50;;;;;;;7.93;5.07;;;;;;;-9.07;100.00;93103.47;2093937;28;20053;-82
2022/04/04 04:11:51;;;;;;;8.45;5.47;;;;;;;-9.21;100.00;93104.28;2101954;28;20477;-82
2022/04/04 04:12:53;;;;;;;5.50;4.50;;;;;;;-9.20;100.00;93110.97;2094803;28;20446;-83
2022/04/04 04:13:54;;;;;;;8.23;5.30;;;;;;;-9.16;100.00;93106.75;2105635;28;20541;-82
2022/04/04 04:14:55;;;;;;;6.53;4.85;;;;;;;-9.15;100.00;93097.91;2107487;28;20478;-81
2022/04/04 04:15:56;;;;;;;5.88;4.55;;;;;;;-9.15;100.00;93099.75;2100880;28;20446;-81
2022/04/04 04:16:57;;;;;;;7.30;5.05;;;;;;;-9.10;100.00;93107.38;2102205;28;20469;-81
2022/04/04 04:17:58;;;;;;;5.82;4.53;;;;;;;-9.19;100.00;93111.72;2102666;28;20114;-82
2022/04/04 04:20:19;;;;;;;8.27;5.32;;;;;;;-9.10;100.00;93109.22;2095199;28;20485;-84
2022/04/04 04:20:33;;;;;;;7.53;5.07;;;;;;;-9.33;100.00;93105.84;2107598;28;20031;-83
2022/04/04 04:21:40;;;;;;;7.38;5.15;;;;;;;-9.39;100.00;93110.38;2102605;28;20499;-81
2022/04/04 04:22:56;;;;;;;7.60;4.72;;;;;;;-9.40;100.00;93107.00;2091462;28;20429;-81
2022/04/04 04:23:57;;;;;;;7.13;4.40;;;;;;;-9.26;100.00;93108.78;2092119;28;20455;-81
2022/04/04 04:25:00;;;;;;;9.23;4.80;;;;;;;-9.37;100.00;93110.81;2090560;28;20460;-83
2022/04/04 04:26:01;;;;;;;6.75;5.20;;;;;;;-9.34;100.00;93112.09;2081961;28;20456;-83
2022/04/04 04:27:03;;;;;;;5.82;4.40;;;;;;;-9.49;100.00;93102.81;2091399;28;20419;-83
2022/04/04 04:28:06;;;;;;;6.72;5.00;;;;;;;-9.34;100.00;93122.44;2090053;28;21053;-82
2022/04/04 04:29:07;;;;;;;6.15;4.53;;;;;;;-9.52;100.00;93111.16;2089980;28;20836;-83
2022/04/04 04:30:09;;;;;;;7.70;5.20;;;;;;;-9.57;100.00;93112.00;2082859;28;20432;-80
2022/04/04 04:31:18;;;;;;;7.72;4.82;;;;;;;-9.52;100.00;93111.94;2087897;28;20021;-82
2022/04/04 04:32:21;;;;;;;6.07;5.03;;;;;;;-9.53;100.00;93114.78;2094368;28;20467;-81
2022/04/04 04:33:24;;;;;;;8.38;5.10;;;;;;;-9.45;100.00;93107.09;2091177;28;20049;-81
2022/04/04 04:34:25;;;;;;;7.00;5.00;;;;;;;-9.33;100.00;93113.59;2090555;28;20490;-82
2022/04/04 04:35:26;;;;;;;6.65;5.13;;;;;;;-9.47;100.00;93108.47;2088896;28;20556;-82
2022/04/04 04:36:30;;;;;;;4.95;4.20;;;;;;;-9.33;100.00;93116.94;2097385;28;21005;-81
2022/04/04 04:37:31;;;;;;;5.35;4.75;;;;;;;-9.30;100.00;93125.97;2095454;28;20447;-83
2022/04/04 04:38:32;;;;;;;5.85;4.85;;;;;;;-9.29;100.00;93117.13;2089761;28;20447;-82
2022/04/04 04:39:33;;;;;;;6.45;4.93;;;;;;;-9.48;100.00;93115.47;2089186;28;20039;-82
2022/04/04 04:40:35;;;;;;;8.52;5.07;;;;;;;-9.55;100.00;93115.09;2089140;28;20772;-83
2022/04/04 04:41:36;;;;;;;7.90;5.00;;;;;;;-9.52;100.00;93119.69;2083223;28;20044;-81
2022/04/04 04:42:37;;;;;;;10.43;5.35;;;;;;;-9.30;100.00;93113.78;2097482;28;20447;-81
2022/04/04 04:43:40;;;;;;;7.38;5.13;;;;;;;-9.49;100.00;93116.50;2104374;28;20408;-82
2022/04/04 04:44:40;;;;;;;9.05;5.18;;;;;;;-9.44;100.00;93125.97;2102878;28;20493;-81
2022/04/04 04:45:42;;;;;;;6.22;4.72;;;;;;;-9.55;100.00;93124.66;2099966;28;20439;-84
2022/04/04 04:46:44;;;;;;;6.68;5.15;;;;;;;-9.38;100.00;93124.81;2088026;28;20025;-82
2022/04/04 04:47:46;;;;;;;6.82;4.80;;;;;;;-9.59;100.00;93127.06;2087264;28;20463;-82
2022/04/04 04:48:47;;;;;;;12.40;5.10;;;;;;;-9.71;100.00;93134.53;2088286;28;20509;-82
2022/04/04 04:49:48;;;;;;;7.70;5.28;;;;;;;-9.61;100.00;93128.41;2087968;28;20505;-82
2022/04/04 04:50:49;;;;;;;9.48;5.20;;;;;;;-9.49;100.00;93133.84;2091419;28;20021;-83
2022/04/04 04:51:53;;;;;;;7.78;4.78;;;;;;;-9.60;100.00;93129.94;2087257;28;20542;-81